Startpagina
METAR-TAF:

METAR-TAF

Vliegvelden :

Flughafen Berlin-Tegel

Berlijn, Duitsland

breedte: 52-34N, lengte: 013-19E, hoogte: 37 m

Actueel weer

Dit bericht is 26 minuten geleden gemaakt, om 08:20 UTC
Wind 11 kt uit het westnoordwesten, variërend tussen het westzuidwesten en het noordnoordwesten
Temperatuur 22°C
Vochtigheid 53%
Druk 1014 hPa
Zicht 10 km of meer
geen wolken onder 1500 m en geen cumulonimbus

METAR: EDDT 180820Z 30011KT 240V340 CAVOK 22/12 Q1014 NOSIG

Tijdstip: 10:46 (08:46 UTC)

Verwachting

Dit bericht is 3 uur en het 46 minuten geleden gemaakt, om 05:00 UTC
Verwachting geldig van 18 om 06 UTC tot 19 om 06 UTC
Wind 5 kt uit het westen
Zicht 10 km of meer
geen wolken onder 1500 m en geen cumulonimbus
Wijzigt naar
van 18 om 06 UTC tot 18 om 09 UTC
Wind 10 kt uit het noordwesten
Wijzigt naar
van 18 om 18 UTC tot 18 om 20 UTC
Wind 5 kt uit het noordnoordwesten

TAF: EDDT 180500Z 1806/1906 28005KT CAVOK BECMG 1806/1809 31010KT BECMG 1818/1820 34005KT

Waarnemingen en weersverwachtingen van meer dan 4000 vliegvelden (METAR en TAF).

De beschikbare stations zijn de gele en rode punten op de kaart.

Ga met uw muis naar het station om de naam te zien.

Klik dan om waarnemingen en weersverwachtingen te zien.

kaart wijzigen: klik op de groene knoppen met een zwart kruis om in te zoomen, op de groene knop met een streepje om uit te zoomen of op de groene pijlen voor aangrenzende kaarten.


METAR-TAF: